• Join FlightAware (Why Join?)
  • Login
  • US Flag 
04:40AM EDT


 

Airport Tracker/Info


-or-


 

Live Flight TrackerFlight Track Log ✈ DAL3676 ✈ 10-Apr-2013 ✈ KHSV - KDTW

Flight Track Log - Related Links

Times and Time Zones

All times are in EDT time to prevent confusion due to time zone crossing. See the DAL3676 flight status page for this flight to view local times or setup timezone preferences in your user account.

Time Position Orientation Groundspeed Altitude Reporting Facility
EDT Latitude Longitude Course Direction KTS MPH feet Rate Location/Type
09:03PM 34.6381 -86.6919 North 300 345 6,600  Level Memphis Center
09:04PM 34.7158 -86.7064 351° North 315 362 9,400 2,160 Climbing Memphis Center
09:05PM 34.8097 -86.7072 360° North 321 369 11,000 1,740 Climbing Memphis Center
09:06PM 34.9119 -86.7056 North 339 390 12,900 1,800 Climbing Memphis Center
09:07PM 35.2326 -86.7301 North  Level FlightAware Approximate
09:07PM 35.0203 -86.7033 North 370 426 14,700  Level Memphis Center
09:08PM 35.3324 -86.7201 North  Level FlightAware Approximate
09:08PM 35.1222 -86.6961 North 387 445 16,000  Level Memphis Center
09:09PM 35.2369 -86.6939 North 410 472 16,600 960 Climbing Memphis Center
09:10PM 35.3706 -86.6956 359° North 422 486 18,000 1,500 Climbing Memphis Center
09:11PM 35.4933 -86.6928 North 427 491 19,600 1,500 Climbing Memphis Center
09:12PM 35.6122 -86.6900 North 427 491 21,100 1,500 Climbing Memphis Center
09:13PM 35.7289 -86.6900 360° North 420 483 22,600 1,440 Climbing Memphis Center
09:14PM 35.8478 -86.6872 North 420 483 24,000 660 Climbing Memphis Center
09:15PM 35.9686 -86.6869 360° North 420 483 24,000  Level Memphis Center
09:16PM 36.0958 -86.6839 North 438 504 24,000 360 Level Memphis Center
09:17PM 36.2194 -86.6369 17° North 462 532 24,800 900 Climbing Memphis Center
09:18PM 36.3406 -86.5697 24° Northeast 462 532 25,800 960 Climbing Memphis Center
09:19PM 36.4575 -86.5100 22° Northeast 462 532 26,800 960 Climbing Memphis Center
09:20PM 36.5700 -86.4453 25° Northeast 450 518 27,800 1,020 Climbing Memphis Center
09:21PM 36.6828 -86.3828 24° Northeast 445 512 28,900 600 Climbing Memphis Center
09:22PM 36.7953 -86.3228 23° Northeast 445 512 29,000  Climbing Memphis Center
09:23PM 36.9139 -86.2547 25° Northeast 455 524 29,000  Level Memphis Center
09:25PM 37.0914 -86.1536 24° Northeast 464 534 29,000  Level Indianapolis Center
09:26PM 37.2117 -86.0861 24° Northeast 469 540 29,000  Level Indianapolis Center
09:27PM 37.3322 -86.0186 24° Northeast 470 541 29,000  Level Indianapolis Center
09:28PM 37.4528 -85.9497 24° Northeast 470 541 29,000  Level Indianapolis Center
09:29PM 37.5700 -85.8850 24° Northeast 470 541 29,000  Level Indianapolis Center
09:30PM 37.6886 -85.8164 25° Northeast 470 541 29,000  Level Indianapolis Center
09:31PM 37.8083 -85.7475 24° Northeast 471 542 29,000  Level Indianapolis Center
09:32PM 37.9278 -85.6794 24° Northeast 470 541 29,000  Level Indianapolis Center
09:33PM 38.0481 -85.6089 25° Northeast 475 547 29,000  Level Indianapolis Center
09:34PM 38.1694 -85.5383 25° Northeast 477 549 29,000  Level Indianapolis Center
09:35PM 38.3139 -85.4500 26° Northeast 479 551 29,000  Level Indianapolis Center
09:36PM 38.4356 -85.3775 25° Northeast 482 555 29,000  Level Indianapolis Center
09:37PM 38.5569 -85.3028 26° Northeast 484 557 29,000  Level Indianapolis Center
09:38PM 38.6792 -85.2297 25° Northeast 483 556 29,000  Level Indianapolis Center
09:39PM 38.8008 -85.1539 26° Northeast 485 558 29,000  Level Indianapolis Center
09:40PM 38.9236 -85.0789 25° Northeast 487 560 29,000  Level Indianapolis Center
09:41PM 39.0450 -85.0039 26° Northeast 483 556 29,000  Level Indianapolis Center
09:42PM 39.1744 -84.9239 26° Northeast 478 550 29,000  Level Indianapolis Center
09:43PM 39.2967 -84.8492 25° Northeast 481 554 29,000  Level Indianapolis Center
09:44PM 39.4181 -84.7744 25° Northeast 477 549 29,000  Level Indianapolis Center
09:45PM 39.5375 -84.7000 26° Northeast 473 544 29,000  Level Indianapolis Center
09:46PM 39.6561 -84.6250 26° Northeast 470 541 29,000  Level Indianapolis Center
09:47PM 39.7761 -84.5500 26° Northeast 472 543 29,000  Level Indianapolis Center
09:48PM 39.8917 -84.4617 30° Northeast 476 548 29,000  Level Indianapolis Center
09:49PM 39.9914 -84.3453 42° Northeast 477 549 29,000  Level Indianapolis Center
09:50PM 40.0950 -84.2331 40° Northeast 476 548 29,000 -360 Level Indianapolis Center
09:51PM 40.1975 -84.1228 39° Northeast 473 544 28,300 -900 Descending Indianapolis Center
09:52PM 40.2969 -84.0161 39° Northeast 458 527 27,200 -1,080 Descending Indianapolis Center
09:53PM 40.3925 -83.9089 41° Northeast 447 514 26,200 -1,620 Descending Indianapolis Center
09:54PM 40.4817 -83.7964 44° Northeast 440 506 24,000 -1,680 Descending Indianapolis Center
09:55PM 40.5667 -83.6856 45° Northeast 428 493 22,900 -1,020 Descending Indianapolis Center
09:56PM 40.6533 -83.5736 44° Northeast 431 496 22,000 -600 Descending Indianapolis Center
09:57PM 40.7028 -83.5139 42° Northeast 423 487 22,000  Level Cleveland Center
09:58PM 40.8028 -83.4306 32° Northeast 423 487 22,000  Level Cleveland Center
09:59PM 40.9186 -83.3917 14° North 417 480 22,000 -540 Level Cleveland Center
10:00PM 41.0281 -83.3467 17° North 417 480 21,000 -1,500 Descending Cleveland Center
10:01PM 41.1314 -83.3014 18° North 398 458 19,000 -1,860 Descending Cleveland Center
10:02PM 41.2344 -83.2589 17° North 390 449 17,300 -1,500 Descending Cleveland Center
10:03PM 41.3356 -83.2186 17° North 385 443 16,100 -1,320 Descending Cleveland Center
10:04PM 41.4364 -83.1783 17° North 380 437 14,700 -1,440 Descending Cleveland Center
10:04PM 41.4617 -83.1683 17° North 373 429 14,300 -1,500 Descending Cleveland Center
10:05PM 41.5269 -83.1406 18° North 368 423 13,400 -1,380 Descending Cleveland Center
10:06PM 41.6239 -83.0997 17° North 351 404 12,000 -1,140 Descending Cleveland Center
10:07PM 41.7181 -83.0758 11° North 345 397 11,000 -540 Descending Cleveland Center
10:08PM 41.8044 -83.1319 334° Northwest 326 375 11,000 -240 Level Cleveland Center
10:09PM 41.8742 -83.1878 329° Northwest 256 295 10,600 -960 Descending Cleveland Center
10:10PM 41.8908 -83.2722 285° West 231 266 9,200 -1,440 Descending Cleveland Center
10:11PM 41.8953 -83.3561 274° West 230 265 7,700 -1,500 Descending Cleveland Center
10:12PM 41.9292 -83.4189 306° West 229 264 6,200 -1,500 Descending Cleveland Center
10:13PM 41.9781 -83.4575 330° Northwest 191 220 4,700 -1,500 Descending Cleveland Center
10:14PM 42.0281 -83.4653 353° North 184 212 3,200 -900 Descending Cleveland Center
10:15PM 42.0658 -83.4503 16° North 152 175 3,000 -300 Descending Cleveland Center
10:16PM 42.1083 -83.4156 31° Northeast 160 184 2,600 -540 Descending Cleveland Center
10:16PM 42.1342 -83.3969 28° Northeast 148 170 2,100 -780 Descending FAA TRACON SMA TRACON (SMA)
10:17PM 42.1469 -83.3875 29° Northeast 134 154 1,800 -780 Descending FAA TRACON SMA TRACON (SMA)
10:17PM 42.1561 -83.3806 29° Northeast 129 148 1,600 -780 Descending FAA TRACON SMA TRACON (SMA)
10:17PM 42.1675 -83.3728 27° Northeast 131 151 1,300 -780 Descending FAA TRACON SMA TRACON (SMA)
10:18PM 42.1767 -83.3656 30° Northeast 125 144 1,100 -600 Descending FAA TRACON SMA TRACON (SMA)
10:18PM 42.1861 -83.3575 32° Northeast 124 143 900 -600 Descending FAA TRACON SMA TRACON (SMA)
10:18PM 42.1975 -83.3503 25° Northeast 122 140 700 -480 Descending FAA TRACON SMA TRACON (SMA)
10:19PM 42.2042 -83.3456 28° Northeast 67 77 600 -360 Descending FAA TRACON SMA TRACON (SMA)
10:21PM 42.2000 -83.3500 334° Northwest  Level FlightAware Approximate